Time;durP1;ratioP1;P1;durP2;ratioP2;P2;SDS_P1;SDS_P2;PMS_P1;PMS_P2;Temp;Humidity;BMP_temperature;BMP_pressure;BME280_temperature;BME280_humidity;BME280_pressure;Samples;Min_cycle;Max_cycle;Signal;HPM_P1;HPM_P2
2023/07/02 00:02:02;;;;;;;2.50;1.67;;;18.30;99.90;;;;;;5019934;28;20178;-67
2023/07/02 00:04:28;;;;;;;2.15;1.40;;;18.30;99.90;;;;;;5034229;28;20201;-67
2023/07/02 00:06:56;;;;;;;2.95;1.50;;;18.30;99.90;;;;;;5018103;28;20170;-66
2023/07/02 00:09:21;;;;;;;2.13;1.67;;;18.30;99.90;;;;;;5018936;28;20205;-67
2023/07/02 00:11:49;;;;;;;2.88;1.50;;;18.30;99.90;;;;;;5020173;28;20188;-67
2023/07/02 00:14:17;;;;;;;2.20;1.75;;;18.30;99.90;;;;;;5019454;28;20202;-67
2023/07/02 00:16:45;;;;;;;2.20;1.70;;;18.20;99.90;;;;;;5021714;28;20269;-64
2023/07/02 00:19:14;;;;;;;2.03;1.70;;;18.20;99.90;;;;;;5034105;28;20185;-65
2023/07/02 00:21:40;;;;;;;1.95;1.65;;;18.20;99.90;;;;;;5010778;28;20233;-67
2023/07/02 00:24:09;;;;;;;2.88;2.10;;;18.20;99.90;;;;;;5019376;28;20194;-66
2023/07/02 00:26:35;;;;;;;2.38;1.70;;;18.20;99.90;;;;;;5018478;28;20170;-67
2023/07/02 00:29:03;;;;;;;1.98;1.40;;;18.20;99.90;;;;;;5003545;28;20194;-66
2023/07/02 00:31:29;;;;;;;1.90;1.52;;;18.20;99.90;;;;;;5016621;28;20189;-67
2023/07/02 00:33:55;;;;;;;3.50;1.58;;;18.20;99.90;;;;;;5016338;28;20189;-67
2023/07/02 00:36:22;;;;;;;2.03;1.60;;;18.20;99.90;;;;;;5026961;28;20186;-67
2023/07/02 00:38:49;;;;;;;2.75;1.60;;;18.20;99.90;;;;;;5015799;28;20274;-67
2023/07/02 00:41:17;;;;;;;2.35;1.90;;;18.20;99.90;;;;;;5022775;28;20173;-67
2023/07/02 00:43:43;;;;;;;1.70;1.50;;;18.20;99.90;;;;;;5032392;28;20285;-67
2023/07/02 00:46:22;;;;;;;5.50;1.67;;;18.10;99.90;;;;;;5023243;28;20251;-67
2023/07/02 00:48:48;;;;;;;4.05;2.00;;;18.10;99.90;;;;;;5015386;28;20208;-64
2023/07/02 00:51:18;;;;;;;7.75;1.80;;;18.10;99.90;;;;;;5013613;28;20181;-61
2023/07/02 00:53:48;;;;;;;2.50;1.80;;;18.10;99.90;;;;;;5010769;28;20187;-66
2023/07/02 00:56:14;;;;;;;1.85;1.40;;;18.10;99.90;;;;;;5014872;28;21588;-65
2023/07/02 00:58:48;;;;;;;3.42;1.80;;;18.10;99.90;;;;;;5018446;28;20178;-67
2023/07/02 01:01:25;;;;;;;2.30;1.73;;;18.10;99.90;;;;;;5020489;28;20259;-67
2023/07/02 01:04:04;;;;;;;3.25;2.10;;;18.10;99.90;;;;;;5030500;28;20206;-67
2023/07/02 01:06:35;;;;;;;2.67;1.70;;;18.10;99.90;;;;;;5011279;28;20260;-67
2023/07/02 01:09:04;;;;;;;2.35;1.92;;;18.10;99.90;;;;;;5015443;28;20171;-66
2023/07/02 01:11:53;;;;;;;2.47;2.10;;;18.10;99.90;;;;;;5044761;28;20170;-66
2023/07/02 01:14:37;;;;;;;3.05;1.88;;;18.00;99.90;;;;;;5044837;28;20263;-67
2023/07/02 01:17:04;;;;;;;3.35;2.10;;;18.00;99.90;;;;;;5017254;28;20265;-66
2023/07/02 01:19:45;;;;;;;2.97;2.13;;;17.90;99.90;;;;;;5033374;28;20209;-67
2023/07/02 01:22:12;;;;;;;2.85;2.13;;;17.90;99.90;;;;;;5016417;28;20185;-65
2023/07/02 01:24:41;;;;;;;2.47;2.17;;;17.90;99.90;;;;;;5016944;28;20266;-67
2023/07/02 01:27:10;;;;;;;3.65;2.50;;;17.80;99.90;;;;;;5024455;28;20174;-67
2023/07/02 01:29:36;;;;;;;9.27;4.90;;;17.80;99.90;;;;;;5013710;28;20171;-67
2023/07/02 01:32:02;;;;;;;5.95;3.00;;;17.70;99.90;;;;;;5014631;28;20249;-66
2023/07/02 01:34:31;;;;;;;5.18;3.17;;;17.70;99.90;;;;;;5032216;28;20281;-66
2023/07/02 01:36:59;;;;;;;4.95;3.20;;;17.70;99.90;;;;;;5015746;28;20240;-67
2023/07/02 01:39:26;;;;;;;4.72;3.00;;;17.60;99.90;;;;;;5015933;28;20182;-65
2023/07/02 01:42:08;;;;;;;4.82;3.35;;;17.50;99.90;;;;;;5036663;28;20347;-67
2023/07/02 01:44:36;;;;;;;4.97;3.20;;;17.60;99.90;;;;;;5035507;28;20194;-66
2023/07/02 01:47:05;;;;;;;5.32;3.33;;;17.40;99.90;;;;;;5015601;28;20216;-67
2023/07/02 01:49:33;;;;;;;5.15;3.83;;;17.40;99.90;;;;;;5015908;28;20189;-62
2023/07/02 01:51:59;;;;;;;6.28;3.50;;;17.40;99.90;;;;;;5020499;28;20194;-67
2023/07/02 01:54:29;;;;;;;6.53;3.47;;;17.30;99.90;;;;;;5032182;28;20174;-68
2023/07/02 01:56:56;;;;;;;6.05;3.85;;;17.30;99.90;;;;;;5019439;28;20189;-62
2023/07/02 01:59:22;;;;;;;9.57;4.28;;;17.30;99.90;;;;;;5019986;28;20198;-67
2023/07/02 02:01:50;;;;;;;4.80;3.70;;;17.20;99.90;;;;;;5018482;28;20253;-66
2023/07/02 02:04:18;;;;;;;8.57;4.20;;;17.10;99.90;;;;;;5020240;28;20195;-67
2023/07/02 02:06:44;;;;;;;6.15;4.22;;;17.20;99.90;;;;;;5017974;28;20197;-66
2023/07/02 02:09:10;;;;;;;7.57;4.50;;;17.20;99.90;;;;;;5019463;28;20192;-67
2023/07/02 02:11:44;;;;;;;7.03;4.20;;;17.20;99.90;;;;;;5018186;28;20862;-67
2023/07/02 02:14:12;;;;;;;6.68;4.22;;;17.10;99.90;;;;;;5034285;28;20181;-67
2023/07/02 02:16:37;;;;;;;8.57;5.00;;;17.10;99.90;;;;;;5023559;28;20182;-67
2023/07/02 02:19:03;;;;;;;7.18;4.60;;;17.10;99.90;;;;;;5021608;28;20285;-64
2023/07/02 02:21:29;;;;;;;10.43;5.30;;;17.20;99.90;;;;;;5020605;28;20190;-67
2023/07/02 02:23:55;;;;;;;8.13;4.80;;;17.20;99.90;;;;;;5022667;28;20333;-67
2023/07/02 02:26:25;;;;;;;7.40;4.82;;;17.20;99.90;;;;;;5012675;28;20326;-66
2023/07/02 02:28:51;;;;;;;7.78;4.88;;;17.20;99.90;;;;;;5023098;28;20170;-64
2023/07/02 02:31:17;;;;;;;9.77;4.95;;;17.20;99.90;;;;;;5024096;28;20370;-67
2023/07/02 02:33:45;;;;;;;10.13;5.40;;;17.20;99.90;;;;;;5037242;28;20197;-67
2023/07/02 02:36:11;;;;;;;8.43;5.20;;;17.20;99.90;;;;;;5017268;28;20192;-66
2023/07/02 02:38:39;;;;;;;8.20;4.85;;;17.20;99.90;;;;;;5017958;28;20202;-67
2023/07/02 02:41:08;;;;;;;8.07;5.13;;;17.20;99.90;;;;;;5017962;28;20184;-66
2023/07/02 02:43:34;;;;;;;11.52;5.32;;;17.20;99.90;;;;;;5013337;28;20210;-67
2023/07/02 02:46:01;;;;;;;8.93;4.72;;;17.20;99.90;;;;;;5014404;28;20177;-66
2023/07/02 02:48:29;;;;;;;7.50;4.80;;;17.30;99.90;;;;;;5038998;28;20198;-66
2023/07/02 02:50:55;;;;;;;9.02;5.03;;;17.30;99.90;;;;;;5021181;28;20202;-66
2023/07/02 02:53:21;;;;;;;7.70;5.32;;;17.30;99.90;;;;;;5020311;28;20178;-66
2023/07/02 02:55:46;;;;;;;9.48;5.50;;;17.30;99.90;;;;;;5017466;28;20272;-66
2023/07/02 02:58:12;;;;;;;7.10;5.28;;;17.30;99.90;;;;;;5019271;28;20239;-66
2023/07/02 03:00:41;;;;;;;9.30;5.03;;;17.30;99.90;;;;;;5018337;28;20178;-66
2023/07/02 03:03:07;;;;;;;10.52;5.85;;;17.30;99.90;;;;;;5019554;28;20208;-67
2023/07/02 03:05:33;;;;;;;9.65;5.85;;;17.40;99.90;;;;;;5018711;28;20194;-67
2023/07/02 03:08:01;;;;;;;8.57;5.57;;;17.40;99.90;;;;;;5018887;28;20201;-66
2023/07/02 03:10:28;;;;;;;12.13;6.00;;;17.40;99.90;;;;;;5015799;28;20182;-66
2023/07/02 03:12:54;;;;;;;8.68;5.82;;;17.40;99.90;;;;;;5018943;28;20325;-65
2023/07/02 03:15:21;;;;;;;8.57;5.57;;;17.40;99.90;;;;;;5017841;28;20233;-65
2023/07/02 03:17:49;;;;;;;10.25;5.40;;;17.40;99.90;;;;;;5018584;28;20174;-65
2023/07/02 03:20:16;;;;;;;7.13;4.93;;;17.40;99.90;;;;;;5015265;28;20178;-65
2023/07/02 03:22:42;;;;;;;10.68;5.25;;;17.40;99.90;;;;;;5018316;28;20209;-66
2023/07/02 03:25:10;;;;;;;8.48;5.57;;;17.50;99.90;;;;;;5014523;28;20199;-65
2023/07/02 03:27:35;;;;;;;9.35;5.40;;;17.40;99.90;;;;;;5027813;28;20228;-65
2023/07/02 03:30:03;;;;;;;8.68;5.40;;;17.50;99.90;;;;;;5018208;28;20174;-65
2023/07/02 03:32:31;;;;;;;10.35;5.82;;;17.50;99.90;;;;;;5009320;28;20186;-65
2023/07/02 03:34:57;;;;;;;8.25;5.38;;;17.50;99.90;;;;;;5022944;28;20450;-67
2023/07/02 03:37:24;;;;;;;12.20;6.50;;;17.50;99.90;;;;;;5034534;28;20328;-66
2023/07/02 03:39:50;;;;;;;7.95;5.40;;;17.50;99.90;;;;;;5025415;28;20204;-66
2023/07/02 03:42:18;;;;;;;9.02;6.00;;;17.50;99.90;;;;;;5020425;28;20198;-66
2023/07/02 03:44:44;;;;;;;11.15;5.85;;;17.50;99.90;;;;;;5016630;28;20194;-66
2023/07/02 03:47:12;;;;;;;11.02;6.32;;;17.50;99.90;;;;;;5016327;28;20193;-66
2023/07/02 03:49:37;;;;;;;11.27;6.25;;;17.50;99.90;;;;;;5001968;28;20374;-67
2023/07/02 03:52:03;;;;;;;11.68;6.90;;;17.50;99.90;;;;;;5017458;28;20328;-67
2023/07/02 03:54:29;;;;;;;10.90;6.85;;;17.50;99.90;;;;;;5021210;28;20189;-67
2023/07/02 03:56:57;;;;;;;10.48;6.53;;;17.40;99.90;;;;;;5027969;28;20181;-67
2023/07/02 03:59:23;;;;;;;11.40;6.65;;;17.40;99.90;;;;;;5015623;28;20194;-67
2023/07/02 04:01:51;;;;;;;12.10;6.82;;;17.40;99.90;;;;;;5018448;28;20240;-67
2023/07/02 04:04:18;;;;;;;12.55;6.75;;;17.40;99.90;;;;;;5014581;28;20209;-67
2023/07/02 04:06:44;;;;;;;14.80;8.00;;;17.40;99.90;;;;;;5013961;28;20764;-66
2023/07/02 04:09:10;;;;;;;14.88;7.47;;;17.40;99.90;;;;;;5012434;28;20209;-66
2023/07/02 04:11:35;;;;;;;12.35;7.88;;;17.40;99.90;;;;;;5046140;28;20205;-67
2023/07/02 04:14:01;;;;;;;13.80;7.30;;;17.40;99.90;;;;;;5014403;28;20250;-67
2023/07/02 04:16:29;;;;;;;10.82;7.15;;;17.40;99.90;;;;;;5026538;28;20212;-67
2023/07/02 04:18:54;;;;;;;10.35;6.93;;;17.40;99.90;;;;;;5022682;28;20194;-67
2023/07/02 04:21:22;;;;;;;12.07;7.50;;;17.40;99.90;;;;;;5016319;28;20224;-67
2023/07/02 04:23:48;;;;;;;11.02;7.50;;;17.40;99.90;;;;;;5013193;28;20209;-67
2023/07/02 04:26:13;;;;;;;10.93;7.00;;;17.40;99.90;;;;;;5022080;28;20180;-66
2023/07/02 04:28:39;;;;;;;11.93;7.57;;;17.40;99.90;;;;;;5017837;28;20204;-67
2023/07/02 04:31:04;;;;;;;12.93;7.30;;;17.40;99.90;;;;;;5020520;28;20173;-67
2023/07/02 04:33:35;;;;;;;12.50;7.18;;;17.40;99.90;;;;;;5032279;28;20259;-66
2023/07/02 04:36:05;;;;;;;11.30;7.90;;;17.40;99.90;;;;;;5012140;28;20182;-67
2023/07/02 04:38:30;;;;;;;11.40;7.65;;;17.40;99.90;;;;;;5030419;28;20280;-67
2023/07/02 04:41:01;;;;;;;13.20;8.07;;;17.50;99.90;;;;;;5022523;28;20276;-67
2023/07/02 04:43:29;;;;;;;14.07;8.15;;;17.50;99.90;;;;;;5016341;28;20177;-67
2023/07/02 04:45:57;;;;;;;12.52;8.77;;;17.50;99.90;;;;;;5017269;28;20182;-67
2023/07/02 04:48:23;;;;;;;14.13;8.88;;;17.50;99.90;;;;;;5023112;28;20296;-67
2023/07/02 04:50:51;;;;;;;15.82;8.93;;;17.50;99.90;;;;;;5014750;28;20485;-67
2023/07/02 04:53:17;;;;;;;16.50;8.57;;;17.50;99.90;;;;;;5030408;28;20190;-68
2023/07/02 04:55:45;;;;;;;15.65;9.05;;;17.50;99.90;;;;;;5018146;28;20184;-67
2023/07/02 04:58:11;;;;;;;14.98;8.85;;;17.60;99.90;;;;;;5032450;28;20209;-67
2023/07/02 05:00:41;;;;;;;13.23;8.70;;;17.60;99.90;;;;;;5025979;28;20237;-67
2023/07/02 05:03:09;;;;;;;14.57;9.55;;;17.60;99.90;;;;;;5016398;28;20193;-67
2023/07/02 05:05:35;;;;;;;14.55;9.20;;;17.60;99.90;;;;;;5016973;28;20213;-67
2023/07/02 05:08:00;;;;;;;18.83;10.10;;;17.60;99.90;;;;;;5022840;28;20177;-67
2023/07/02 05:10:28;;;;;;;15.20;9.32;;;17.60;99.90;;;;;;5004284;28;20244;-67
2023/07/02 05:12:54;;;;;;;15.20;9.63;;;17.60;99.90;;;;;;5033925;28;20217;-67
2023/07/02 05:15:22;;;;;;;17.25;9.65;;;17.60;99.90;;;;;;5033432;28;20408;-67
2023/07/02 05:17:49;;;;;;;17.42;9.73;;;17.60;99.90;;;;;;5019279;28;20266;-67
2023/07/02 05:20:15;;;;;;;14.00;9.15;;;17.60;99.90;;;;;;5008670;28;20194;-68
2023/07/02 05:22:43;;;;;;;14.20;8.82;;;17.60;99.90;;;;;;5024689;28;20182;-67
2023/07/02 05:25:11;;;;;;;15.90;9.38;;;17.70;99.90;;;;;;5035235;28;20236;-67
2023/07/02 05:27:37;;;;;;;16.77;9.88;;;17.70;99.90;;;;;;5019804;28;20244;-67
2023/07/02 05:30:03;;;;;;;16.88;10.07;;;17.70;99.90;;;;;;5033690;28;20313;-67
2023/07/02 05:32:29;;;;;;;18.75;9.82;;;17.70;99.90;;;;;;5018198;28;20272;-67
2023/07/02 05:34:54;;;;;;;17.20;10.32;;;17.70;99.90;;;;;;5026952;28;20227;-68
2023/07/02 05:37:21;;;;;;;17.80;10.95;;;17.80;99.90;;;;;;5018673;28;20181;-66
2023/07/02 05:39:47;;;;;;;15.68;10.68;;;17.80;99.90;;;;;;5020123;28;20184;-67
2023/07/02 05:42:12;;;;;;;15.18;10.00;;;17.80;99.90;;;;;;5008378;28;20170;-67
2023/07/02 05:44:40;;;;;;;18.05;10.45;;;17.90;99.90;;;;;;5028670;28;20213;-67
2023/07/02 05:47:11;;;;;;;19.35;11.48;;;17.90;99.90;;;;;;5020252;28;20178;-67
2023/07/02 05:49:36;;;;;;;22.27;12.00;;;17.90;99.90;;;;;;5019481;28;20190;-68
2023/07/02 05:52:02;;;;;;;22.75;11.55;;;18.00;99.90;;;;;;5019165;28;20201;-67
2023/07/02 05:54:28;;;;;;;19.35;11.32;;;18.00;99.90;;;;;;5017868;28;20199;-67
2023/07/02 05:56:53;;;;;;;21.45;11.57;;;18.00;99.90;;;;;;5020570;28;20182;-67
2023/07/02 05:59:19;;;;;;;21.65;11.77;;;18.00;99.90;;;;;;5020092;28;20182;-67
2023/07/02 06:01:45;;;;;;;17.25;10.65;;;18.10;99.90;;;;;;5017607;28;20201;-67
2023/07/02 06:04:10;;;;;;;20.27;12.02;;;18.10;99.90;;;;;;5018319;28;20236;-67
2023/07/02 06:06:36;;;;;;;18.67;11.63;;;18.10;99.90;;;;;;5021925;28;20265;-67
2023/07/02 06:09:02;;;;;;;19.30;11.60;;;18.20;99.90;;;;;;5018522;28;20174;-67
2023/07/02 06:11:28;;;;;;;20.60;12.15;;;18.20;99.90;;;;;;5019303;28;20198;-67
2023/07/02 06:13:56;;;;;;;23.23;13.10;;;18.30;99.90;;;;;;5018717;28;20185;-67
2023/07/02 06:16:24;;;;;;;23.90;13.60;;;18.30;99.90;;;;;;5024849;28;20182;-68
2023/07/02 06:18:55;;;;;;;19.40;12.65;;;18.30;99.90;;;;;;5018426;28;20438;-67
2023/07/02 06:21:24;;;;;;;21.83;13.32;;;18.30;99.90;;;;;;5019431;28;20209;-67
2023/07/02 06:23:50;;;;;;;25.48;13.85;;;18.40;99.90;;;;;;5012872;28;20233;-67
2023/07/02 06:26:18;;;;;;;21.48;14.15;;;18.40;99.90;;;;;;5019048;28;20170;-68
2023/07/02 06:28:43;;;;;;;26.67;15.07;;;18.50;99.90;;;;;;5018772;28;20182;-67
2023/07/02 06:31:10;;;;;;;22.33;14.00;;;18.50;99.90;;;;;;5019653;28;20198;-68
2023/07/02 06:33:42;;;;;;;22.85;14.23;;;18.50;99.90;;;;;;5015258;28;20266;-67
2023/07/02 06:36:08;;;;;;;19.45;12.73;;;18.50;99.90;;;;;;5019122;28;20177;-68
2023/07/02 06:38:33;;;;;;;24.15;13.63;;;18.60;99.90;;;;;;5019875;28;20185;-67
2023/07/02 06:40:59;;;;;;;25.65;14.77;;;18.70;99.90;;;;;;5024654;28;20390;-67
2023/07/02 06:43:24;;;;;;;22.17;13.40;;;18.80;99.90;;;;;;5015767;28;20204;-67
2023/07/02 06:45:50;;;;;;;22.58;13.38;;;18.80;99.90;;;;;;5022902;28;20198;-67
2023/07/02 06:48:17;;;;;;;23.98;13.35;;;18.90;99.90;;;;;;5016560;28;20186;-67
2023/07/02 06:50:45;;;;;;;21.25;13.30;;;19.00;99.90;;;;;;5015020;28;20279;-68
2023/07/02 06:53:11;;;;;;;28.42;15.48;;;19.00;99.90;;;;;;5014227;28;20185;-67
2023/07/02 06:55:36;;;;;;;23.75;14.82;;;19.10;99.90;;;;;;5018097;28;20268;-67
2023/07/02 06:58:03;;;;;;;24.63;14.95;;;19.10;99.90;;;;;;5034819;28;20188;-67
2023/07/02 07:00:32;;;;;;;24.67;14.70;;;19.20;99.90;;;;;;5019438;28;20178;-67
2023/07/02 07:03:00;;;;;;;23.30;13.75;;;19.20;99.90;;;;;;5018765;28;20285;-67
2023/07/02 07:05:28;;;;;;;24.73;13.95;;;19.30;99.90;;;;;;5015384;28;20195;-67
2023/07/02 07:07:53;;;;;;;20.08;13.10;;;19.30;99.90;;;;;;5012444;28;20229;-67
2023/07/02 07:10:21;;;;;;;21.55;13.65;;;19.30;99.90;;;;;;5020203;28;20234;-67
2023/07/02 07:12:47;;;;;;;24.17;13.98;;;19.40;99.90;;;;;;5014307;28;20170;-68
2023/07/02 07:15:14;;;;;;;25.15;14.05;;;19.50;99.90;;;;;;5018724;28;20185;-67
2023/07/02 07:17:40;;;;;;;25.25;14.45;;;19.50;99.90;;;;;;5019206;28;20261;-67
2023/07/02 07:20:06;;;;;;;24.02;14.88;;;19.50;99.90;;;;;;5018566;28;20293;-67
2023/07/02 07:22:34;;;;;;;26.42;14.20;;;19.50;99.90;;;;;;5007994;28;20323;-67
2023/07/02 07:25:02;;;;;;;22.17;13.95;;;19.50;99.90;;;;;;5012173;28;20200;-67
2023/07/02 07:27:28;;;;;;;22.30;13.63;;;19.60;99.90;;;;;;5022640;28;20174;-68
2023/07/02 07:29:53;;;;;;;20.42;12.88;;;19.60;99.90;;;;;;5015423;28;20206;-67
2023/07/02 07:32:23;;;;;;;21.65;13.27;;;19.60;99.90;;;;;;5033502;28;20339;-67
2023/07/02 07:34:51;;;;;;;21.45;12.57;;;19.70;99.90;;;;;;5020032;28;20185;-67
2023/07/02 07:37:17;;;;;;;18.10;11.15;;;19.80;99.90;;;;;;5007898;28;20213;-67
2023/07/02 07:39:47;;;;;;;17.15;11.20;;;19.80;99.90;;;;;;5023603;28;20194;-67
2023/07/02 07:42:16;;;;;;;24.17;12.73;;;19.90;99.90;;;;;;5020574;28;20174;-67
2023/07/02 07:44:44;;;;;;;18.95;11.20;;;19.90;99.90;;;;;;5017080;28;20204;-68
2023/07/02 07:47:10;;;;;;;21.33;12.38;;;20.00;99.90;;;;;;5016224;28;20184;-68
2023/07/02 07:49:37;;;;;;;17.48;11.68;;;20.10;99.90;;;;;;5018800;28;20182;-68
2023/07/02 07:52:06;;;;;;;19.10;11.82;;;20.10;99.90;;;;;;5015816;28;20174;-68
2023/07/02 07:54:35;;;;;;;17.50;11.15;;;20.20;99.90;;;;;;5013903;28;20408;-68
2023/07/02 07:57:01;;;;;;;17.35;10.02;;;20.30;99.90;;;;;;5017891;28;20296;-68
2023/07/02 07:59:26;;;;;;;17.80;10.43;;;20.30;99.90;;;;;;5016684;28;20202;-68
2023/07/02 08:01:52;;;;;;;19.45;11.25;;;20.40;99.90;;;;;;5019884;28;20181;-68
2023/07/02 08:04:17;;;;;;;16.15;10.32;;;20.50;99.90;;;;;;5019264;28;20196;-67
2023/07/02 08:06:43;;;;;;;16.23;9.85;;;20.50;99.90;;;;;;5014260;28;20178;-67
2023/07/02 08:09:13;;;;;;;15.65;10.40;;;20.60;99.90;;;;;;5023302;28;20453;-67
2023/07/02 08:11:39;;;;;;;16.13;10.02;;;20.70;99.90;;;;;;5017525;28;20181;-67
2023/07/02 08:14:07;;;;;;;18.23;10.23;;;20.70;99.90;;;;;;5017548;28;20247;-66
2023/07/02 08:16:35;;;;;;;19.67;11.20;;;20.80;99.90;;;;;;5017113;28;20243;-66
2023/07/02 08:19:01;;;;;;;17.20;11.18;;;20.90;99.90;;;;;;5015679;28;20206;-67
2023/07/02 08:21:29;;;;;;;18.60;10.90;;;20.90;99.90;;;;;;5019597;28;20190;-66
2023/07/02 08:23:55;;;;;;;19.85;10.68;;;21.00;99.90;;;;;;5024774;28;20197;-66
2023/07/02 08:26:20;;;;;;;16.40;10.40;;;21.10;99.90;;;;;;5017936;28;20247;-66
2023/07/02 08:28:46;;;;;;;16.52;10.43;;;21.10;99.90;;;;;;5017851;28;20283;-66
2023/07/02 08:31:11;;;;;;;15.40;9.45;;;21.10;99.90;;;;;;5016472;28;20475;-66
2023/07/02 08:33:40;;;;;;;13.88;9.55;;;21.20;99.90;;;;;;5024606;28;20224;-66
2023/07/02 08:36:05;;;;;;;15.45;9.68;;;21.20;99.90;;;;;;5019766;28;20170;-67
2023/07/02 08:38:34;;;;;;;16.35;9.55;;;21.30;99.90;;;;;;5023655;28;20184;-67
2023/07/02 08:41:02;;;;;;;16.63;10.57;;;21.40;99.90;;;;;;5021677;28;20199;-67
2023/07/02 08:43:31;;;;;;;19.40;11.15;;;21.40;99.90;;;;;;5017258;28;20166;-67
2023/07/02 08:45:57;;;;;;;17.90;10.23;;;21.40;99.90;;;;;;5017507;28;20201;-67
2023/07/02 08:48:26;;;;;;;13.90;9.77;;;21.50;99.90;;;;;;5014950;28;20248;-67
2023/07/02 08:50:51;;;;;;;17.80;10.88;;;21.50;99.90;;;;;;5016598;28;20182;-67
2023/07/02 08:53:17;;;;;;;14.68;9.30;;;21.50;99.90;;;;;;5029636;28;20202;-67
2023/07/02 08:55:45;;;;;;;14.70;9.52;;;21.50;99.90;;;;;;5019436;28;20204;-67
2023/07/02 08:58:11;;;;;;;14.63;9.52;;;21.50;99.90;;;;;;5031720;28;20174;-68
2023/07/02 09:00:36;;;;;;;16.55;9.60;;;21.60;99.90;;;;;;5020500;28;20184;-67
2023/07/02 09:03:13;;;;;;;14.80;8.95;;;21.60;99.90;;;;;;5048121;28;20182;-67
2023/07/02 09:05:52;;;;;;;14.50;8.90;;;21.70;99.90;;;;;;5001846;28;20474;-67
2023/07/02 09:08:29;;;;;;;14.80;8.73;;;21.70;99.90;;;;;;5002282;28;20163;-67
2023/07/02 09:11:05;;;;;;;14.25;8.50;;;21.70;99.90;;;;;;5016490;28;20224;-68
2023/07/02 09:13:31;;;;;;;12.15;8.38;;;21.70;99.90;;;;;;5018687;28;20174;-68
2023/07/02 09:15:56;;;;;;;14.93;8.40;;;21.70;99.90;;;;;;5037232;28;20185;-68
2023/07/02 09:18:25;;;;;;;15.45;8.80;;;21.70;99.90;;;;;;5022486;28;20204;-67
2023/07/02 09:20:54;;;;;;;15.07;8.75;;;21.70;99.90;;;;;;5039334;28;20178;-67
2023/07/02 09:23:25;;;;;;;12.30;8.77;;;21.60;99.90;;;;;;5020656;28;20178;-67
2023/07/02 09:25:50;;;;;;;14.50;7.85;;;21.60;99.90;;;;;;5037461;28;20284;-67
2023/07/02 09:28:19;;;;;;;15.35;9.13;;;21.60;99.90;;;;;;5020451;28;20277;-67
2023/07/02 09:30:56;;;;;;;13.95;8.75;;;21.60;99.90;;;;;;5037699;28;20276;-67
2023/07/02 09:33:24;;;;;;;12.98;8.75;;;21.60;99.90;;;;;;5020154;28;20184;-67
2023/07/02 09:35:52;;;;;;;12.13;8.35;;;21.60;99.90;;;;;;5020389;28;20188;-67
2023/07/02 09:38:21;;;;;;;14.63;9.30;;;21.60;99.90;;;;;;5018673;28;20178;-68
2023/07/02 09:40:53;;;;;;;12.73;8.70;;;21.60;99.90;;;;;;5006586;28;20178;-67
2023/07/02 09:43:20;;;;;;;15.40;9.63;;;21.60;99.90;;;;;;5021591;28;20201;-67
2023/07/02 09:45:49;;;;;;;13.55;9.27;;;21.70;99.90;;;;;;5021145;28;20244;-67
2023/07/02 09:48:16;;;;;;;13.80;8.95;;;21.70;99.90;;;;;;5019581;28;20174;-67
2023/07/02 09:50:47;;;;;;;13.60;9.10;;;21.80;99.90;;;;;;5043631;28;20360;-66
2023/07/02 09:53:13;;;;;;;16.23;9.85;;;21.90;99.90;;;;;;5018310;28;20496;-65
2023/07/02 09:55:41;;;;;;;17.95;10.57;;;21.90;99.90;;;;;;5013696;28;20183;-66
2023/07/02 09:58:13;;;;;;;14.68;9.43;;;22.00;99.90;;;;;;5021188;28;20228;-66
2023/07/02 10:00:39;;;;;;;18.77;10.52;;;22.00;99.90;;;;;;5018596;28;20188;-66
2023/07/02 10:03:05;;;;;;;14.55;9.30;;;22.10;99.90;;;;;;5018928;28;20298;-66
2023/07/02 10:05:35;;;;;;;17.40;10.48;;;22.20;99.90;;;;;;5036876;28;20198;-67
2023/07/02 10:08:16;;;;;;;18.48;10.13;;;22.40;99.90;;;;;;5038674;28;20174;-67
2023/07/02 10:10:42;;;;;;;14.73;9.77;;;22.40;99.90;;;;;;5036427;28;20451;-66
2023/07/02 10:13:08;;;;;;;12.55;8.43;;;22.40;99.90;;;;;;5026643;28;20260;-67
2023/07/02 10:15:37;;;;;;;14.15;8.63;;;22.50;99.90;;;;;;5019183;28;20192;-67
2023/07/02 10:18:06;;;;;;;14.73;9.85;;;22.60;99.90;;;;;;5020718;28;21935;-67
2023/07/02 10:20:40;;;;;;;13.93;9.40;;;22.70;99.90;;;;;;5040955;28;20181;-68
2023/07/02 10:23:07;;;;;;;17.20;10.00;;;22.90;99.90;;;;;;5018481;28;20221;-66
2023/07/02 10:25:37;;;;;;;14.93;9.75;;;22.90;99.90;;;;;;5027911;28;20206;-66
2023/07/02 10:28:22;;;;;;;18.73;10.13;;;22.90;99.90;;;;;;5020926;28;20328;-66
2023/07/02 10:30:52;;;;;;;19.85;10.45;;;22.90;99.90;;;;;;5021189;28;20258;-67
2023/07/02 10:33:21;;;;;;;15.27;9.57;;;22.90;99.90;;;;;;5008322;28;20182;-66
2023/07/02 10:35:51;;;;;;;12.20;8.90;;;22.70;99.90;;;;;;5023731;28;20217;-68
2023/07/02 10:38:21;;;;;;;14.65;9.15;;;22.70;99.90;;;;;;5031613;28;20182;-70
2023/07/02 10:40:53;;;;;;;15.07;8.68;;;22.60;99.90;;;;;;5019874;28;20178;-69
2023/07/02 10:43:30;;;;;;;13.77;8.98;;;22.60;99.90;;;;;;5036888;28;20178;-68
2023/07/02 10:46:00;;;;;;;13.57;9.43;;;22.60;99.90;;;;;;5013655;28;20284;-69
2023/07/02 10:48:25;;;;;;;12.80;8.88;;;22.60;99.90;;;;;;5018049;28;20221;-68
2023/07/02 10:50:51;;;;;;;14.00;9.07;;;22.60;99.90;;;;;;5013502;28;20190;-68
2023/07/02 10:53:18;;;;;;;13.85;9.02;;;22.60;99.90;;;;;;5036077;28;20170;-66
2023/07/02 10:55:44;;;;;;;13.18;8.40;;;22.60;99.90;;;;;;5019010;28;20272;-69
2023/07/02 10:58:14;;;;;;;16.17;8.75;;;22.50;99.90;;;;;;5018392;28;20205;-70
2023/07/02 11:00:47;;;;;;;16.55;8.80;;;22.50;99.90;;;;;;5024686;28;20217;-68
2023/07/02 11:03:21;;;;;;;14.45;9.40;;;22.50;99.90;;;;;;5018698;28;20493;-70
2023/07/02 11:05:48;;;;;;;14.98;9.15;;;22.50;99.90;;;;;;5003150;28;20253;-70
2023/07/02 11:08:16;;;;;;;14.10;8.77;;;22.50;99.90;;;;;;5033137;28;20216;-71
2023/07/02 11:10:44;;;;;;;15.07;8.77;;;22.60;99.90;;;;;;5018633;28;20174;-69
2023/07/02 11:13:17;;;;;;;12.52;8.38;;;22.80;99.90;;;;;;5018568;28;20204;-70
2023/07/02 11:15:45;;;;;;;13.07;8.50;;;22.90;99.90;;;;;;5032845;28;20182;-69
2023/07/02 11:18:14;;;;;;;11.18;7.68;;;23.20;99.90;;;;;;5021466;28;20409;-70
2023/07/02 11:20:41;;;;;;;11.82;8.32;;;23.40;99.90;;;;;;5040616;28;20206;-69
2023/07/02 11:23:22;;;;;;;14.40;8.43;;;23.70;99.90;;;;;;5020243;28;20185;-69
2023/07/02 11:26:01;;;;;;;14.52;8.65;;;23.90;99.90;;;;;;5035612;28;20189;-70
2023/07/02 11:28:29;;;;;;;14.30;8.80;;;24.10;99.90;;;;;;5014823;28;20202;-69
2023/07/02 11:30:58;;;;;;;15.38;8.80;;;24.10;99.90;;;;;;5035445;28;20169;-69
2023/07/02 11:33:36;;;;;;;14.93;9.52;;;24.10;99.90;;;;;;5027256;28;20190;-69
2023/07/02 11:36:06;;;;;;;13.65;8.85;;;24.00;99.90;;;;;;5023138;28;20209;-69
2023/07/02 11:38:36;;;;;;;15.60;9.05;;;23.80;99.90;;;;;;5026525;28;20178;-69
2023/07/02 11:41:05;;;;;;;15.32;8.85;;;23.70;99.90;;;;;;5013866;28;20197;-68
2023/07/02 11:43:34;;;;;;;13.43;9.27;;;23.60;99.90;;;;;;5034419;28;20190;-70
2023/07/02 11:45:59;;;;;;;15.98;9.13;;;23.60;99.90;;;;;;5031777;28;20211;-70
2023/07/02 11:48:27;;;;;;;14.18;8.38;;;23.60;99.90;;;;;;5022556;28;20261;-69
2023/07/02 11:50:55;;;;;;;14.23;8.68;;;23.60;99.90;;;;;;5016232;28;20233;-70
2023/07/02 11:53:20;;;;;;;12.38;8.18;;;23.60;99.90;;;;;;5020622;28;20197;-67
2023/07/02 11:55:49;;;;;;;13.85;8.27;;;23.70;99.90;;;;;;5008326;28;20293;-70
2023/07/02 11:58:17;;;;;;;16.05;9.38;;;23.80;99.90;;;;;;5039169;28;20189;-69
2023/07/02 12:00:45;;;;;;;16.10;9.65;;;23.90;99.90;;;;;;5025970;28;20209;-68
2023/07/02 12:03:12;;;;;;;14.15;8.45;;;23.90;99.90;;;;;;5017108;28;20193;-69
2023/07/02 12:05:40;;;;;;;15.93;9.10;;;24.00;99.90;;;;;;5017516;28;20264;-69
2023/07/02 12:08:06;;;;;;;13.23;8.93;;;24.10;99.90;;;;;;5015537;28;20175;-68
2023/07/02 12:10:34;;;;;;;13.48;8.70;;;24.10;99.90;;;;;;5035771;28;20178;-66
2023/07/02 12:13:04;;;;;;;15.93;9.85;;;24.10;99.90;;;;;;5014650;28;20265;-69
2023/07/02 12:15:30;;;;;;;16.80;9.52;;;24.10;99.90;;;;;;5034681;28;20181;-69
2023/07/02 12:17:58;;;;;;;12.18;8.73;;;24.10;99.90;;;;;;5018154;28;20177;-68
2023/07/02 12:20:26;;;;;;;13.63;9.02;;;24.00;99.90;;;;;;5019807;28;20201;-69
2023/07/02 12:22:51;;;;;;;12.57;8.65;;;24.00;99.90;;;;;;5021431;28;20182;-70
2023/07/02 12:25:17;;;;;;;13.48;9.25;;;24.00;99.90;;;;;;5018046;28;20201;-67
2023/07/02 12:27:42;;;;;;;14.80;8.40;;;24.10;99.90;;;;;;5031621;28;20201;-69
2023/07/02 12:30:09;;;;;;;13.07;8.90;;;24.10;99.90;;;;;;5010364;28;20283;-69
2023/07/02 12:32:34;;;;;;;12.77;8.50;;;24.20;99.90;;;;;;5024575;28;20201;-70
2023/07/02 12:35:02;;;;;;;12.02;8.32;;;24.20;99.90;;;;;;5016593;28;20328;-69
2023/07/02 12:37:28;;;;;;;13.38;8.82;;;24.30;99.90;;;;;;5015893;28;20200;-70
2023/07/02 12:39:53;;;;;;;13.00;8.43;;;24.30;99.90;;;;;;5017467;28;20209;-69